Time;durP1;ratioP1;P1;durP2;ratioP2;P2;SDS_P1;SDS_P2;PMS_P1;PMS_P2;Temp;Humidity;BMP_temperature;BMP_pressure;BME280_temperature;BME280_humidity;BME280_pressure;Samples;Min_cycle;Max_cycle;Signal;HPM_P1;HPM_P2
2023/06/12 08:45:16;;;;;;;1.65;0.80;;;;;;;25.76;91.36;100334.59;5061385;28;20402;-71
2023/06/12 08:47:46;;;;;;;3.25;0.90;;;;;;;25.66;87.60;100331.78;5066025;28;21086;-70
2023/06/12 08:50:12;;;;;;;2.28;0.98;;;;;;;25.57;81.66;100327.91;5063322;28;20023;-72
2023/06/12 08:52:38;;;;;;;3.88;1.10;;;;;;;25.49;76.91;100320.34;5065155;28;20040;-71
2023/06/12 08:55:07;;;;;;;1.80;0.98;;;;;;;25.74;73.81;100322.56;5062767;28;20334;-71
2023/06/12 08:57:35;;;;;;;2.50;1.52;;;;;;;25.86;73.10;100319.78;5065955;28;20112;-70
2023/06/12 09:00:00;;;;;;;1.75;0.80;;;;;;;25.95;71.40;100321.75;5068942;28;20048;-71
2023/06/12 09:02:28;;;;;;;2.25;0.65;;;;;;;25.74;68.90;100333.22;5064151;28;20033;-71
2023/06/12 09:05:03;;;;;;;1.25;0.70;;;;;;;25.80;66.88;100329.56;5068974;28;20025;-71
2023/06/12 09:07:33;;;;;;;2.05;0.73;;;;;;;25.90;66.01;100329.69;5061714;28;20043;-71
2023/06/12 09:09:58;;;;;;;1.70;0.90;;;;;;;26.08;66.10;100321.34;5071430;28;20040;-70
2023/06/12 09:12:23;;;;;;;1.63;0.60;;;;;;;26.17;66.12;100326.25;5063799;28;20040;-68
2023/06/12 09:14:50;;;;;;;1.75;0.60;;;;;;;26.23;65.66;100326.06;5059808;28;20075;-69
2023/06/12 09:17:16;;;;;;;2.13;0.57;;;;;;;26.28;64.79;100325.31;5066828;28;20095;-70
2023/06/12 09:19:47;;;;;;;1.05;0.68;;;;;;;26.17;64.13;100328.94;5063334;28;20437;-69
2023/06/12 09:22:13;;;;;;;1.50;0.65;;;;;;;26.07;64.01;100325.06;5062933;28;20506;-70
2023/06/12 09:24:40;;;;;;;3.97;0.63;;;;;;;26.11;64.49;100326.19;5062541;28;20028;-70
2023/06/12 09:27:06;;;;;;;2.85;1.00;;;;;;;26.31;64.51;100327.50;5066111;28;20587;-70
2023/06/12 09:29:34;;;;;;;2.22;0.80;;;;;;;26.43;63.02;100322.84;5062885;28;20036;-69
2023/06/12 09:32:05;;;;;;;2.25;0.60;;;;;;;26.37;61.97;100321.16;5061038;28;20032;-69
2023/06/12 09:34:31;;;;;;;1.88;0.80;;;;;;;26.42;61.22;100321.22;5066458;28;20024;-68
2023/06/12 09:36:58;;;;;;;0.95;0.77;;;;;;;26.23;61.98;100325.25;5060682;28;20107;-68
2023/06/12 09:39:33;;;;;;;2.45;1.00;;;;;;;26.09;58.38;100325.63;5063929;28;20039;-70
2023/06/12 09:42:00;;;;;;;1.77;0.82;;;;;;;26.24;62.47;100322.34;5052384;28;20037;-69
2023/06/12 09:44:28;;;;;;;1.05;0.80;;;;;;;26.09;60.47;100320.28;5055895;28;20064;-69
2023/06/12 09:46:58;;;;;;;2.28;0.82;;;;;;;26.09;56.83;100330.97;5062984;28;20512;-70
2023/06/12 09:49:24;;;;;;;2.38;1.23;;;;;;;25.94;59.59;100327.34;5057774;28;20620;-70
2023/06/12 09:51:51;;;;;;;2.30;0.80;;;;;;;26.13;58.78;100318.75;5066598;28;20032;-70
2023/06/12 09:54:19;;;;;;;2.17;0.82;;;;;;;26.37;59.28;100316.63;5062199;28;20115;-69
2023/06/12 09:56:46;;;;;;;5.28;0.77;;;;;;;25.87;59.12;100310.72;5050548;28;20075;-68
2023/06/12 09:59:19;;;;;;;2.20;0.70;;;;;;;25.46;58.05;100310.97;5046297;28;20052;-70
2023/06/12 10:01:46;;;;;;;0.98;0.57;;;;;;;25.52;58.51;100311.81;5048640;28;20497;-69
2023/06/12 10:04:13;;;;;;;1.00;0.70;;;;;;;25.86;58.67;100303.75;5046246;28;20124;-69
2023/06/12 10:06:40;;;;;;;1.35;0.68;;;;;;;25.62;59.41;100313.81;5041133;28;20112;-70
2023/06/12 10:09:06;;;;;;;3.25;0.73;;;;;;;25.33;60.46;100311.31;5044715;28;20086;-71
2023/06/12 10:11:34;;;;;;;3.30;0.60;;;;;;;25.56;59.19;100314.81;5043252;28;20380;-70
2023/06/12 10:14:00;;;;;;;1.50;0.63;;;;;;;26.13;58.81;100307.25;5043575;28;20032;-69
2023/06/12 10:16:26;;;;;;;1.45;0.82;;;;;;;26.04;57.89;100304.22;5043678;28;20033;-69
2023/06/12 10:18:54;;;;;;;1.52;0.70;;;;;;;25.80;59.85;100294.88;5047362;28;20142;-69
2023/06/12 10:21:20;;;;;;;1.13;0.93;;;;;;;25.88;60.06;100296.31;5042587;28;20052;-69
2023/06/12 10:23:46;;;;;;;2.17;0.70;;;;;;;25.91;60.31;100299.28;5038757;28;20474;-69
2023/06/12 10:26:12;;;;;;;1.85;0.60;;;;;;;25.92;58.24;100294.75;5039871;28;20069;-70
2023/06/12 10:28:37;;;;;;;1.00;0.70;;;;;;;26.05;58.66;100289.00;5038083;28;20041;-69
2023/06/12 10:31:16;;;;;;;2.60;0.75;;;;;;;26.45;56.92;100296.69;5039025;28;20028;-68
2023/06/12 10:34:09;;;;;;;1.65;0.90;;;;;;;26.64;54.69;100284.53;5036908;28;20400;-70
2023/06/12 10:36:44;;;;;;;1.20;0.82;;;;;;;26.49;57.56;100296.94;5041950;28;20138;-69
2023/06/12 10:39:13;;;;;;;;;;;;;;;26.41;53.38;100291.03;5046459;28;20047;-70
2023/06/12 10:41:38;;;;;;;2.33;0.95;;;;;;;26.68;60.33;100279.50;5038548;28;19924;-69
2023/06/12 10:44:35;;;;;;;1.20;0.80;;;;;;;26.75;56.02;100286.25;5036855;28;20049;-69
2023/06/12 10:47:01;;;;;;;1.13;0.63;;;;;;;26.87;59.33;100287.94;5036897;28;20033;-69
2023/06/12 10:49:27;;;;;;;1.35;0.88;;;;;;;26.99;57.86;100286.69;5036802;28;20035;-70
2023/06/12 10:51:53;;;;;;;0.90;0.50;;;;;;;26.94;57.34;100286.63;5034334;28;20101;-69
2023/06/12 10:54:26;;;;;;;1.38;0.85;;;;;;;26.92;54.26;100279.97;5040601;28;20037;-70
2023/06/12 10:57:02;;;;;;;0.90;0.63;;;;;;;26.78;54.35;100280.38;5046449;28;20029;-68
2023/06/12 10:59:35;;;;;;;2.00;0.70;;;;;;;26.77;56.00;100278.78;5038893;28;20515;-70
2023/06/12 11:02:01;;;;;;;1.42;1.13;;;;;;;26.71;58.20;100268.31;5038568;28;20037;-71
2023/06/12 11:04:27;;;;;;;1.90;1.10;;;;;;;26.75;57.32;100274.75;5040294;28;20429;-68
2023/06/12 11:06:53;;;;;;;2.45;0.70;;;;;;;26.81;56.36;100270.25;5034609;28;20061;-72
2023/06/12 11:09:18;;;;;;;1.77;0.73;;;;;;;26.52;54.88;100269.72;5039245;28;20029;-71
2023/06/12 11:11:50;;;;;;;1.02;0.63;;;;;;;26.49;54.78;100260.34;5041978;28;20025;-69
2023/06/12 11:14:15;;;;;;;0.93;0.70;;;;;;;26.69;55.36;100259.72;5044718;28;21536;-68
2023/06/12 11:16:41;;;;;;;0.93;0.50;;;;;;;26.82;55.01;100261.16;5038397;28;20041;-70
2023/06/12 11:19:07;;;;;;;1.73;0.70;;;;;;;26.87;55.74;100250.53;5038902;28;20496;-69
2023/06/12 11:21:33;;;;;;;2.17;0.82;;;;;;;26.69;55.53;100249.84;5038791;28;20106;-69
2023/06/12 11:24:04;;;;;;;1.40;0.90;;;;;;;26.67;53.98;100256.50;5044205;28;20160;-69
2023/06/12 11:26:31;;;;;;;1.13;0.80;;;;;;;26.74;55.61;100252.56;5043484;28;20064;-69
2023/06/12 11:29:12;;;;;;;1.70;0.80;;;;;;;26.90;52.99;100256.16;5041871;28;20025;-68
2023/06/12 11:31:38;;;;;;;1.75;0.63;;;;;;;26.66;55.39;100250.34;5038921;28;20024;-70
2023/06/12 11:34:04;;;;;;;1.52;0.65;;;;;;;26.73;55.38;100253.63;5036456;28;20040;-70
2023/06/12 11:36:29;;;;;;;2.13;0.60;;;;;;;26.88;54.75;100247.59;5035590;28;20037;-69
2023/06/12 11:38:55;;;;;;;3.42;0.80;;;;;;;26.50;53.28;100245.94;5032948;28;20579;-70
2023/06/12 11:41:20;;;;;;;1.10;0.50;;;;;;;26.41;53.92;100242.97;5036766;28;20334;-69
2023/06/12 11:43:46;;;;;;;0.98;0.60;;;;;;;26.27;53.12;100238.25;5038709;28;20042;-69
2023/06/12 11:46:11;;;;;;;2.22;0.60;;;;;;;26.21;54.45;100229.38;5043426;28;20126;-71
2023/06/12 11:48:37;;;;;;;4.55;0.80;;;;;;;26.26;54.41;100236.63;5046374;28;20029;-69
2023/06/12 11:51:03;;;;;;;1.27;0.63;;;;;;;26.13;54.55;100235.97;5047608;28;20492;-69
2023/06/12 11:53:30;;;;;;;1.10;0.85;;;;;;;25.88;54.97;100227.72;5043928;28;20831;-69
2023/06/12 11:56:00;;;;;;;2.28;0.80;;;;;;;26.01;54.71;100221.16;5047701;28;20077;-70
2023/06/12 11:58:36;;;;;;;2.10;0.73;;;;;;;26.22;52.62;100217.66;5042095;28;20171;-69
2023/06/12 12:01:13;;;;;;;1.20;0.80;;;;;;;26.35;53.48;100205.78;5043555;28;20111;-70
2023/06/12 12:03:46;;;;;;;1.60;0.57;;;;;;;26.45;53.77;100211.19;5038772;28;20060;-68
2023/06/12 12:06:13;;;;;;;1.65;0.82;;;;;;;26.41;54.88;100215.44;5052498;28;20033;-70
2023/06/12 12:08:40;;;;;;;3.88;1.02;;;;;;;26.65;54.66;100210.53;5044129;28;20037;-70
2023/06/12 12:11:19;;;;;;;1.02;0.90;;;;;;;26.59;51.89;100215.03;5045324;28;20029;-69
2023/06/12 12:13:52;;;;;;;2.75;0.70;;;;;;;26.60;53.79;100215.84;5038798;28;20620;-70
2023/06/12 12:16:25;;;;;;;1.10;0.88;;;;;;;26.36;51.73;100215.41;5042233;28;20072;-69
2023/06/12 12:18:51;;;;;;;1.42;0.52;;;;;;;26.30;53.09;100206.50;5049330;28;20064;-69
2023/06/12 12:21:17;;;;;;;1.42;0.75;;;;;;;26.34;52.33;100198.81;5040563;28;20037;-69
2023/06/12 12:23:42;;;;;;;0.88;0.60;;;;;;;26.39;52.86;100204.22;5041725;28;20041;-70
2023/06/12 12:26:15;;;;;;;1.73;0.70;;;;;;;26.34;52.28;100201.50;5036266;28;20033;-69
2023/06/12 12:28:41;;;;;;;1.40;0.55;;;;;;;26.31;52.60;100204.66;5037943;28;20033;-70
2023/06/12 12:31:08;;;;;;;1.23;0.70;;;;;;;26.34;51.90;100201.50;5035805;28;20029;-69
2023/06/12 12:33:33;;;;;;;3.08;0.80;;;;;;;26.36;52.66;100202.03;5033241;28;20033;-71
2023/06/12 12:35:59;;;;;;;1.00;0.70;;;;;;;26.44;52.75;100193.56;5033603;28;20107;-68
2023/06/12 12:38:24;;;;;;;2.67;0.50;;;;;;;26.38;52.32;100197.25;5042909;28;20033;-68
2023/06/12 12:40:50;;;;;;;2.78;1.15;;;;;;;26.42;52.22;100201.03;5038718;28;20025;-69
2023/06/12 12:43:15;;;;;;;1.13;0.70;;;;;;;26.59;51.87;100200.88;5037082;28;20491;-69
2023/06/12 12:45:41;;;;;;;2.00;0.55;;;;;;;26.50;51.00;100197.84;5043049;28;20146;-70
2023/06/12 12:48:06;;;;;;;1.85;0.55;;;;;;;26.41;51.30;100199.41;5038597;28;20090;-69
2023/06/12 12:50:32;;;;;;;1.55;0.68;;;;;;;26.57;51.62;100201.13;5046502;28;20174;-69
2023/06/12 12:52:57;;;;;;;2.15;0.65;;;;;;;26.39;50.85;100188.19;5050509;28;20032;-68
2023/06/12 12:55:22;;;;;;;2.33;0.60;;;;;;;26.40;51.44;100187.94;5045007;28;20036;-68
2023/06/12 12:57:48;;;;;;;5.22;0.82;;;;;;;26.39;51.37;100174.81;5042459;28;20067;-69
2023/06/12 13:00:17;;;;;;;2.03;0.60;;;;;;;26.41;49.93;100178.06;5042718;28;20044;-69
2023/06/12 13:02:43;;;;;;;1.75;0.50;;;;;;;26.54;49.93;100177.59;5040607;28;20233;-69
2023/06/12 13:05:11;;;;;;;1.10;0.57;;;;;;;26.62;50.17;100177.13;5048468;28;20025;-70
2023/06/12 13:07:38;;;;;;;0.95;0.40;;;;;;;26.59;49.59;100166.94;5040622;28;20350;-69
2023/06/12 13:10:07;;;;;;;1.02;0.77;;;;;;;26.64;50.37;100171.50;5048507;28;20025;-70
2023/06/12 13:12:33;;;;;;;0.80;0.60;;;;;;;26.70;50.00;100160.59;5039403;28;20051;-69
2023/06/12 13:14:59;;;;;;;1.63;0.70;;;;;;;26.64;50.09;100164.31;5040109;28;20037;-70
2023/06/12 13:17:26;;;;;;;1.35;0.50;;;;;;;26.62;49.50;100163.75;5039789;28;20064;-69
2023/06/12 13:19:53;;;;;;;0.88;0.60;;;;;;;26.64;50.72;100172.31;5028701;28;20456;-69
2023/06/12 13:22:19;;;;;;;1.20;0.63;;;;;;;26.55;50.27;100168.50;5048630;28;20025;-69
2023/06/12 13:24:44;;;;;;;0.90;0.70;;;;;;;26.54;51.24;100155.41;5044011;28;20508;-71
2023/06/12 13:27:10;;;;;;;0.80;0.50;;;;;;;26.57;51.96;100161.03;5040762;28;20043;-70
2023/06/12 13:29:37;;;;;;;2.35;0.50;;;;;;;26.75;51.50;100163.31;5037324;28;20063;-70
2023/06/12 13:32:03;;;;;;;3.25;0.85;;;;;;;26.84;50.56;100160.16;5046696;28;20444;-70
2023/06/12 13:34:29;;;;;;;1.65;0.60;;;;;;;26.94;50.58;100150.31;5048794;28;20047;-69
2023/06/12 13:36:54;;;;;;;3.45;0.60;;;;;;;26.95;50.25;100151.09;5049084;28;20497;-69
2023/06/12 13:39:21;;;;;;;0.90;0.55;;;;;;;26.99;50.61;100144.22;5047964;28;20048;-70
2023/06/12 13:41:47;;;;;;;0.90;0.52;;;;;;;27.01;50.39;100148.22;5049367;28;20028;-69
2023/06/12 13:44:13;;;;;;;0.90;0.60;;;;;;;26.93;50.23;100142.56;5048875;28;20049;-70
2023/06/12 13:46:38;;;;;;;2.38;0.60;;;;;;;26.75;50.05;100141.94;5047066;28;20429;-69
2023/06/12 13:49:05;;;;;;;1.90;0.80;;;;;;;26.68;50.16;100146.69;5044408;28;20524;-70
2023/06/12 13:51:40;;;;;;;2.17;0.70;;;;;;;26.65;49.84;100138.38;5048339;28;20069;-70
2023/06/12 13:54:06;;;;;;;1.05;0.68;;;;;;;26.45;50.43;100141.75;5053925;28;20044;-72
2023/06/12 13:56:32;;;;;;;1.75;0.60;;;;;;;26.52;51.64;100136.97;5048732;28;20120;-74
2023/06/12 13:58:58;;;;;;;2.25;0.60;;;;;;;26.66;51.69;100140.00;5038861;28;20029;-75
2023/06/12 14:01:24;;;;;;;0.80;0.60;;;;;;;26.69;51.59;100137.63;5044771;28;20028;-74
2023/06/12 14:03:52;;;;;;;1.13;0.57;;;;;;;26.74;51.72;100134.97;5048062;28;20025;-75
2023/06/12 14:06:18;;;;;;;2.70;0.75;;;;;;;26.83;51.79;100135.28;5044066;28;20033;-74
2023/06/12 14:08:44;;;;;;;0.90;0.50;;;;;;;26.96;49.98;100145.53;5047034;28;20033;-71
2023/06/12 14:11:09;;;;;;;2.47;0.60;;;;;;;26.97;49.62;100141.78;5045846;28;20048;-71
2023/06/12 14:13:37;;;;;;;1.27;0.70;;;;;;;26.88;49.65;100139.88;5043793;28;20473;-72
2023/06/12 14:16:04;;;;;;;1.05;0.60;;;;;;;26.77;50.53;100137.13;5022394;28;20103;-73
2023/06/12 14:18:30;;;;;;;2.83;0.63;;;;;;;26.88;49.43;100139.88;5047104;28;20044;-72
2023/06/12 14:20:56;;;;;;;0.73;0.50;;;;;;;26.92;48.42;100135.63;5045630;28;20037;-72
2023/06/12 14:23:22;;;;;;;1.00;0.70;;;;;;;26.91;48.67;100126.78;5050890;28;20025;-73
2023/06/12 14:25:48;;;;;;;2.03;0.60;;;;;;;26.80;49.08;100125.13;5050515;28;20029;-73
2023/06/12 14:28:13;;;;;;;3.42;0.60;;;;;;;26.70;49.52;100128.53;5044436;28;20134;-73
2023/06/12 14:30:38;;;;;;;1.10;0.63;;;;;;;26.78;49.99;100125.38;5043099;28;20048;-74
2023/06/12 14:33:04;;;;;;;2.25;0.50;;;;;;;26.75;49.64;100120.56;5045121;28;20039;-74
2023/06/12 14:35:29;;;;;;;1.38;0.63;;;;;;;26.65;50.53;100117.81;5040696;28;20033;-75
2023/06/12 14:37:55;;;;;;;1.40;0.70;;;;;;;26.43;51.51;100106.47;5044988;28;20083;-74
2023/06/12 14:40:20;;;;;;;2.03;0.90;;;;;;;26.09;52.63;100109.41;5051769;28;20535;-74
2023/06/12 14:42:46;;;;;;;1.33;0.50;;;;;;;25.85;53.06;100104.66;5041127;28;20033;-76
2023/06/12 14:45:11;;;;;;;0.93;0.55;;;;;;;25.80;52.84;100110.75;5040491;28;20043;-75
2023/06/12 14:47:37;;;;;;;4.35;0.70;;;;;;;25.79;54.15;100101.94;5043090;28;20426;-75
2023/06/12 14:50:03;;;;;;;1.48;0.77;;;;;;;25.72;54.24;100096.00;5041284;28;20031;-75
2023/06/12 14:52:29;;;;;;;2.65;0.50;;;;;;;25.67;55.15;100109.31;5042736;28;20102;-75
2023/06/12 14:54:54;;;;;;;1.23;0.60;;;;;;;25.64;54.97;100098.31;5045353;28;20065;-74
2023/06/12 14:57:20;;;;;;;1.33;0.88;;;;;;;25.83;52.07;100086.25;5042207;28;20403;-70
2023/06/12 14:59:45;;;;;;;1.85;0.50;;;;;;;26.12;50.58;100086.72;5041715;28;20094;-70
2023/06/12 15:02:11;;;;;;;1.00;0.50;;;;;;;26.22;49.40;100083.34;5051019;28;20048;-69
2023/06/12 15:04:36;;;;;;;2.55;0.65;;;;;;;26.09;50.49;100077.34;5049326;28;20040;-70
2023/06/12 15:07:02;;;;;;;1.38;0.60;;;;;;;26.07;51.67;100078.69;5047885;28;20021;-69
2023/06/12 15:09:27;;;;;;;1.60;0.63;;;;;;;25.95;53.11;100072.72;5044228;28;20051;-69
2023/06/12 15:11:52;;;;;;;0.77;0.50;;;;;;;25.78;54.49;100078.19;5049738;28;20029;-70
2023/06/12 15:14:18;;;;;;;2.40;0.73;;;;;;;25.58;55.56;100075.28;5046544;28;20045;-70
2023/06/12 15:16:43;;;;;;;1.00;0.60;;;;;;;25.48;54.72;100078.69;5045106;28;20614;-69
2023/06/12 15:19:09;;;;;;;0.90;0.70;;;;;;;25.50;53.30;100071.25;5038361;28;20083;-70
2023/06/12 15:21:34;;;;;;;2.97;0.70;;;;;;;25.52;52.59;100073.66;5048686;28;20036;-70
2023/06/12 15:23:59;;;;;;;1.20;0.60;;;;;;;25.59;52.03;100075.03;5044615;28;20029;-68
2023/06/12 15:26:26;;;;;;;0.80;0.65;;;;;;;25.60;52.17;100070.50;5037731;28;20021;-71
2023/06/12 15:28:51;;;;;;;2.75;0.60;;;;;;;25.48;53.21;100072.56;5037278;28;20084;-72
2023/06/12 15:31:17;;;;;;;4.03;1.00;;;;;;;25.59;52.72;100074.25;5044626;28;20534;-70
2023/06/12 15:33:42;;;;;;;2.35;0.90;;;;;;;25.75;52.62;100068.03;5045389;28;20041;-71
2023/06/12 15:36:08;;;;;;;1.55;0.60;;;;;;;26.02;52.76;100070.63;5046029;28;20456;-71
2023/06/12 15:38:39;;;;;;;1.80;0.65;;;;;;;26.18;51.98;100076.91;5052187;28;20032;-71
2023/06/12 15:41:06;;;;;;;1.55;0.75;;;;;;;26.28;52.36;100066.28;5046154;28;20477;-73
2023/06/12 15:43:33;;;;;;;1.20;0.55;;;;;;;26.43;52.54;100069.09;5043135;28;20392;-72
2023/06/12 15:45:58;;;;;;;1.20;1.08;;;;;;;26.66;53.11;100068.66;5044683;28;20456;-72
2023/06/12 15:48:27;;;;;;;0.95;0.73;;;;;;;26.69;52.88;100062.81;5044633;28;20075;-72
2023/06/12 15:50:54;;;;;;;2.40;1.10;;;;;;;26.57;52.55;100066.75;5039230;28;20052;-71
2023/06/12 15:53:20;;;;;;;1.70;0.85;;;;;;;26.46;52.39;100071.25;5043876;28;20056;-71
2023/06/12 15:55:47;;;;;;;1.98;0.60;;;;;;;26.56;50.46;100060.59;5049178;28;20064;-71
2023/06/12 15:58:12;;;;;;;2.03;0.73;;;;;;;26.65;49.35;100066.25;5047432;28;20500;-70
2023/06/12 16:00:38;;;;;;;3.38;0.77;;;;;;;26.76;49.33;100060.69;5046456;28;20067;-71
2023/06/12 16:03:03;;;;;;;2.35;0.93;;;;;;;26.80;50.14;100063.66;5047740;28;20080;-71
2023/06/12 16:05:29;;;;;;;1.13;0.70;;;;;;;26.78;49.88;100061.25;5048513;28;20231;-70
2023/06/12 16:07:54;;;;;;;1.92;0.98;;;;;;;26.84;49.73;100059.41;5048824;28;20562;-69
2023/06/12 16:10:20;;;;;;;2.92;0.57;;;;;;;26.80;49.80;100057.50;5046838;28;20032;-70
2023/06/12 16:12:45;;;;;;;0.90;0.60;;;;;;;26.83;48.86;100067.69;5045877;28;20029;-70
2023/06/12 16:15:11;;;;;;;1.92;0.90;;;;;;;26.78;49.00;100055.91;5047373;28;20029;-69
2023/06/12 16:17:36;;;;;;;1.92;0.68;;;;;;;26.83;48.80;100062.34;5047632;28;20140;-70
2023/06/12 16:20:05;;;;;;;1.60;0.85;;;;;;;26.80;50.38;100066.34;5044047;28;20028;-70
2023/06/12 16:22:31;;;;;;;1.70;0.60;;;;;;;26.71;50.94;100063.34;5045746;28;20144;-71
2023/06/12 16:24:56;;;;;;;1.05;0.60;;;;;;;26.53;51.29;100063.78;5048865;28;20536;-75
2023/06/12 16:27:21;;;;;;;1.40;0.60;;;;;;;26.30;51.77;100064.16;5047858;28;20029;-78
2023/06/12 16:29:51;;;;;;;1.85;0.70;;;;;;;26.08;51.35;100070.41;5046533;28;20124;-78
2023/06/12 16:32:17;;;;;;;1.48;0.60;;;;;;;25.94;52.24;100082.59;5047942;28;20032;-72
2023/06/12 16:34:42;;;;;;;3.25;0.85;;;;;;;25.79;52.80;100079.81;5048904;28;20033;-69
2023/06/12 16:37:07;;;;;;;1.85;0.70;;;;;;;25.71;52.87;100089.06;5047454;28;20132;-70
2023/06/12 16:39:34;;;;;;;1.42;0.85;;;;;;;25.64;53.66;100083.13;5045013;28;20040;-70
2023/06/12 16:41:59;;;;;;;1.63;0.70;;;;;;;25.56;54.21;100086.22;5045260;28;20400;-70
2023/06/12 16:44:25;;;;;;;2.17;1.10;;;;;;;25.49;54.03;100084.84;5046110;28;20149;-70
2023/06/12 16:46:50;;;;;;;1.30;1.00;;;;;;;25.43;54.37;100087.44;5054253;28;20381;-71
2023/06/12 16:49:15;;;;;;;2.33;0.90;;;;;;;25.39;54.66;100091.66;5047078;28;20043;-71
2023/06/12 16:51:41;;;;;;;2.70;0.75;;;;;;;25.32;54.90;100096.38;5048245;28;20025;-69
2023/06/12 16:54:07;;;;;;;1.50;0.90;;;;;;;25.22;55.21;100092.78;5048227;28;20029;-69
2023/06/12 16:56:32;;;;;;;1.67;0.98;;;;;;;25.16;55.21;100091.13;5047536;28;20064;-66
2023/06/12 16:58:58;;;;;;;2.22;0.93;;;;;;;25.12;55.20;100096.94;5046554;28;20037;-71
2023/06/12 17:01:23;;;;;;;3.00;1.00;;;;;;;25.06;55.50;100097.94;5046321;28;20036;-73
2023/06/12 17:03:49;;;;;;;2.95;1.08;;;;;;;25.00;55.27;100092.81;5044223;28;20599;-70
2023/06/12 17:06:14;;;;;;;1.90;1.27;;;;;;;25.01;54.70;100089.09;5050515;28;20045;-70
2023/06/12 17:08:40;;;;;;;1.50;0.82;;;;;;;24.99;55.28;100093.88;5046689;28;20033;-71
2023/06/12 17:11:08;;;;;;;2.03;0.77;;;;;;;24.95;55.77;100100.72;5042065;28;20063;-70
2023/06/12 17:13:34;;;;;;;2.60;0.88;;;;;;;24.89;56.25;100091.06;5048666;28;20094;-69
2023/06/12 17:16:00;;;;;;;2.40;1.10;;;;;;;24.84;56.54;100098.97;5056092;28;20036;-70
2023/06/12 17:18:26;;;;;;;2.58;1.08;;;;;;;24.76;56.38;100093.03;5048459;28;20029;-70
2023/06/12 17:20:52;;;;;;;3.05;1.20;;;;;;;24.68;56.93;100096.09;5050879;28;20048;-69
2023/06/12 17:23:17;;;;;;;2.28;0.90;;;;;;;24.60;57.30;100093.84;5051759;28;20033;-70
2023/06/12 17:25:42;;;;;;;1.52;0.80;;;;;;;24.53;57.60;100103.91;5052959;28;20040;-71
2023/06/12 17:28:08;;;;;;;4.60;0.80;;;;;;;24.50;58.22;100104.38;5046433;28;20029;-69
2023/06/12 17:30:33;;;;;;;3.33;1.58;;;;;;;24.45;59.36;100112.31;5044382;28;20458;-76
2023/06/12 17:32:59;;;;;;;2.58;1.15;;;;;;;24.36;60.13;100106.56;5042505;28;20044;-69
2023/06/12 17:35:25;;;;;;;2.80;1.13;;;;;;;24.28;61.68;100116.81;5052598;28;20029;-69
2023/06/12 17:37:51;;;;;;;2.63;1.30;;;;;;;24.16;62.87;100120.34;5046988;28;20499;-70
2023/06/12 17:40:16;;;;;;;2.80;1.02;;;;;;;24.09;63.24;100129.56;5049888;28;20118;-70
2023/06/12 17:42:41;;;;;;;2.88;1.10;;;;;;;24.07;63.67;100131.66;5045222;28;20078;-69
2023/06/12 17:45:07;;;;;;;1.27;1.08;;;;;;;24.02;65.73;100135.03;5049349;28;20037;-69
2023/06/12 17:47:33;;;;;;;8.45;1.70;;;;;;;23.69;71.73;100142.94;5046312;28;20037;-69
2023/06/12 17:49:58;;;;;;;4.68;2.30;;;;;;;23.18;79.39;100144.56;5043080;28;20037;-71
2023/06/12 17:52:24;;;;;;;10.55;3.33;;;;;;;22.43;89.18;100152.47;5053277;28;20052;-67
2023/06/12 17:54:50;;;;;;;4.47;3.03;;;;;;;21.87;96.70;100153.69;5047754;28;20396;-67
2023/06/12 17:57:15;;;;;;;5.80;3.28;;;;;;;21.51;100.00;100150.13;5045059;28;20048;-68
2023/06/12 17:59:41;;;;;;;5.72;2.83;;;;;;;21.25;100.00;100157.59;5044221;28;20028;-67
2023/06/12 18:02:06;;;;;;;4.80;2.95;;;;;;;21.00;100.00;100161.06;5041518;28;20045;-66
2023/06/12 18:04:32;;;;;;;3.63;2.80;;;;;;;20.74;100.00;100156.06;5037761;28;20025;-68
2023/06/12 18:06:57;;;;;;;2.90;2.50;;;;;;;20.51;100.00;100164.59;5040407;28;20039;-67
2023/06/12 18:09:23;;;;;;;3.70;3.00;;;;;;;20.37;100.00;100163.03;5038409;28;20485;-67
2023/06/12 18:11:50;;;;;;;2.67;2.47;;;;;;;20.24;100.00;100173.75;5052577;28;20037;-68
2023/06/12 18:14:16;;;;;;;3.65;3.17;;;;;;;20.29;100.00;100168.63;5046825;28;20028;-69
2023/06/12 18:16:42;;;;;;;4.18;3.60;;;;;;;20.26;100.00;100169.06;5047689;28;20562;-67
2023/06/12 18:19:07;;;;;;;5.75;3.70;;;;;;;20.23;100.00;100177.41;5053219;28;20036;-67
2023/06/12 18:21:33;;;;;;;3.67;3.33;;;;;;;20.17;100.00;100179.09;5046004;28;20032;-68
2023/06/12 18:23:59;;;;;;;5.30;3.45;;;;;;;20.15;100.00;100181.94;5054478;28;20139;-67
2023/06/12 18:26:25;;;;;;;6.30;3.58;;;;;;;20.12;100.00;100182.38;5046874;28;20043;-67
2023/06/12 18:28:50;;;;;;;3.63;3.25;;;;;;;20.07;100.00;100184.84;5046455;28;20091;-67
2023/06/12 18:31:16;;;;;;;6.60;3.90;;;;;;;20.04;100.00;100187.09;5043366;28;20063;-67
2023/06/12 18:33:41;;;;;;;6.60;4.63;;;;;;;20.04;100.00;100184.44;5042062;28;20504;-67
2023/06/12 18:36:07;;;;;;;5.10;4.60;;;;;;;20.05;100.00;100184.22;5043740;28;20041;-68
2023/06/12 18:38:32;;;;;;;4.93;4.20;;;;;;;20.05;100.00;100194.00;5047526;28;20037;-67
2023/06/12 18:40:58;;;;;;;4.88;4.32;;;;;;;20.02;100.00;100192.59;5040918;28;20017;-68
2023/06/12 18:43:23;;;;;;;8.40;5.30;;;;;;;20.00;100.00;100199.94;5039078;28;20496;-67
2023/06/12 18:45:49;;;;;;;5.03;4.50;;;;;;;19.98;100.00;100196.69;5048204;28;20045;-67
2023/06/12 18:48:14;;;;;;;7.93;3.67;;;;;;;19.94;100.00;100190.19;5044424;28;20020;-68
2023/06/12 18:50:40;;;;;;;5.05;4.57;;;;;;;19.93;100.00;100198.34;5047738;28;20029;-68
2023/06/12 18:53:05;;;;;;;5.60;4.90;;;;;;;19.90;100.00;100194.28;5050948;28;20060;-68
2023/06/12 18:55:30;;;;;;;4.75;4.25;;;;;;;19.89;100.00;100200.59;5045105;28;20037;-68
2023/06/12 18:57:56;;;;;;;7.75;4.63;;;;;;;19.89;100.00;100208.53;5047979;28;20025;-68
2023/06/12 19:00:21;;;;;;;5.32;4.07;;;;;;;19.88;100.00;100217.47;5044406;28;20049;-67
2023/06/12 19:02:47;;;;;;;3.95;3.60;;;;;;;19.83;100.00;100236.63;5048240;28;20033;-67
2023/06/12 19:05:12;;;;;;;5.88;4.45;;;;;;;19.84;100.00;100240.09;5049894;28;20035;-68
2023/06/12 19:07:38;;;;;;;3.60;3.03;;;;;;;19.83;100.00;100244.56;5046668;28;20037;-69
2023/06/12 19:10:03;;;;;;;3.00;2.70;;;;;;;19.83;100.00;100254.34;5043831;28;20102;-69
2023/06/12 19:12:29;;;;;;;2.55;1.88;;;;;;;20.56;94.08;100260.03;5041637;28;20041;-75
2023/06/12 19:14:55;;;;;;;2.08;1.48;;;;;;;21.11;86.93;100255.72;5041683;28;20017;-68
2023/06/12 19:17:20;;;;;;;3.97;2.22;;;;;;;21.25;85.24;100248.47;5047266;28;20051;-68
2023/06/12 19:19:45;;;;;;;1.70;1.38;;;;;;;21.36;82.83;100262.81;5045847;28;20044;-68
2023/06/12 19:22:11;;;;;;;4.22;1.38;;;;;;;21.38;81.69;100264.22;5043034;28;20029;-68
2023/06/12 19:24:38;;;;;;;3.90;1.75;;;;;;;21.37;80.47;100273.19;5044640;28;20029;-69
2023/06/12 19:27:05;;;;;;;1.90;1.40;;;;;;;21.38;79.96;100276.66;5043238;28;20036;-68
2023/06/12 19:29:30;;;;;;;4.82;2.22;;;;;;;21.21;80.44;100276.44;5041956;28;20388;-70
2023/06/12 19:31:55;;;;;;;2.15;1.58;;;;;;;21.07;81.20;100280.19;5046945;28;20029;-68
2023/06/12 19:34:21;;;;;;;2.42;1.85;;;;;;;20.87;84.19;100285.66;5043335;28;20021;-66
2023/06/12 19:36:46;;;;;;;3.55;1.73;;;;;;;20.70;86.74;100293.34;5050216;28;20090;-67
2023/06/12 19:39:12;;;;;;;3.85;1.80;;;;;;;20.52;88.10;100301.19;5036175;28;20578;-67
2023/06/12 19:41:37;;;;;;;3.22;1.70;;;;;;;20.35;91.06;100303.47;5041647;28;20068;-67
2023/06/12 19:44:03;;;;;;;2.10;1.65;;;;;;;20.26;91.94;100312.72;5041354;28;20488;-67
2023/06/12 19:46:29;;;;;;;2.17;1.98;;;;;;;20.22;93.16;100324.75;5041656;28;20044;-67
2023/06/12 19:48:54;;;;;;;3.70;2.30;;;;;;;20.10;93.28;100331.69;5037934;28;20032;-67
2023/06/12 19:51:20;;;;;;;5.03;2.30;;;;;;;20.05;92.74;100331.50;5043365;28;20446;-67
2023/06/12 19:53:46;;;;;;;2.42;1.90;;;;;;;20.04;92.27;100329.88;5030001;28;20037;-67
2023/06/12 19:56:12;;;;;;;3.65;2.15;;;;;;;20.03;92.77;100338.84;5036960;28;20357;-68
2023/06/12 19:58:38;;;;;;;2.42;1.50;;;;;;;20.05;91.38;100342.91;5041423;28;20037;-68
2023/06/12 20:01:04;;;;;;;3.67;1.80;;;;;;;20.09;91.07;100351.22;5038568;28;20043;-68
2023/06/12 20:03:30;;;;;;;4.45;2.00;;;;;;;20.08;91.35;100366.28;5041246;28;20493;-68
2023/06/12 20:05:58;;;;;;;2.85;2.20;;;;;;;20.10;92.63;100372.19;5044804;28;20027;-68